Time;durP1;ratioP1;P1;durP2;ratioP2;P2;SDS_P1;SDS_P2;PMS_P1;PMS_P2;Temp;Humidity;BMP_temperature;BMP_pressure;BME280_temperature;BME280_humidity;BME280_pressure;Samples;Min_cycle;Max_cycle;Signal;HPM_P1;HPM_P2
2022/02/04 00:06:00;;;;;;;6.40;3.10;;;8.50;99.90;;;;;;5068445;28;20206;-70
2022/02/04 00:25:17;;;;;;;9.57;3.40;;;8.50;99.90;;;;;;5081888;28;20194;-69
2022/02/04 00:27:43;;;;;;;6.03;3.03;;;8.50;99.90;;;;;;5092674;28;20244;-68
2022/02/04 00:30:18;;;;;;;6.80;3.23;;;8.50;99.90;;;;;;5092698;28;20863;-69
2022/02/04 00:32:47;;;;;;;5.63;2.60;;;8.60;99.90;;;;;;5092214;28;20206;-69
2022/02/04 00:35:25;;;;;;;7.73;3.17;;;8.50;99.90;;;;;;5093141;28;20272;-70
2022/02/04 00:38:00;;;;;;;6.07;3.10;;;8.50;99.90;;;;;;5092799;28;20253;-71
2022/02/04 00:40:31;;;;;;;9.97;2.97;;;8.50;99.90;;;;;;5092850;28;20226;-68
2022/02/04 00:43:02;;;;;;;7.10;3.13;;;8.50;99.90;;;;;;5092648;28;20213;-69
2022/02/04 00:45:35;;;;;;;6.60;3.13;;;8.40;99.90;;;;;;5092480;28;20199;-70
2022/02/04 00:48:17;;;;;;;6.90;2.93;;;8.40;99.90;;;;;;5092549;28;20329;-68
2022/02/04 00:50:55;;;;;;;6.33;3.20;;;8.40;99.90;;;;;;5092561;28;20318;-69
2022/02/04 00:53:30;;;;;;;4.77;2.80;;;8.30;99.90;;;;;;5092530;28;20210;-70
2022/02/04 00:56:08;;;;;;;6.13;2.60;;;8.40;99.90;;;;;;5092434;28;20293;-68
2022/02/04 01:26:17;;;;;;;5.53;2.33;;;8.40;99.90;;;;;;5033066;28;20590;-68
2022/02/04 01:28:46;;;;;;;5.90;2.77;;;8.40;99.90;;;;;;5081615;28;20319;-69
2022/02/04 01:31:15;;;;;;;4.37;2.47;;;8.40;99.90;;;;;;5095865;28;20263;-68
2022/02/04 01:33:44;;;;;;;4.40;2.53;;;8.50;99.90;;;;;;5114148;28;20255;-68
2022/02/04 01:36:12;;;;;;;5.10;2.33;;;8.60;99.90;;;;;;5115899;27;20198;-68
2022/02/04 01:38:39;;;;;;;3.40;2.20;;;8.60;99.90;;;;;;5115904;28;20575;-68
2022/02/04 01:41:07;;;;;;;4.33;2.00;;;8.60;99.90;;;;;;5115835;28;20240;-68
2022/02/04 01:43:34;;;;;;;4.20;2.20;;;8.60;99.90;;;;;;5116228;28;20224;-69
2022/02/04 01:46:04;;;;;;;4.47;2.23;;;8.60;99.90;;;;;;5115585;28;20559;-68
2022/02/04 01:48:31;;;;;;;3.53;2.00;;;8.70;99.90;;;;;;5095054;28;20230;-68
2022/02/04 01:51:00;;;;;;;3.10;1.80;;;8.70;99.90;;;;;;5095451;28;20214;-71
2022/02/04 01:53:29;;;;;;;2.90;1.80;;;8.70;99.90;;;;;;5095387;28;20206;-67
2022/02/04 01:55:57;;;;;;;5.00;2.00;;;8.60;99.90;;;;;;5095297;28;20203;-68
2022/02/04 01:58:24;;;;;;;3.83;2.10;;;8.60;99.90;;;;;;5095062;28;20228;-70
2022/02/04 02:00:51;;;;;;;4.27;2.00;;;8.60;99.90;;;;;;5095439;28;20577;-70
2022/02/04 02:03:19;;;;;;;2.43;1.80;;;8.70;99.90;;;;;;5095295;28;20198;-70
2022/02/04 02:05:46;;;;;;;3.17;1.30;;;8.70;99.90;;;;;;5095119;28;20301;-69
2022/02/04 02:08:17;;;;;;;2.70;1.70;;;8.60;99.90;;;;;;5095181;28;20222;-69
2022/02/04 02:10:45;;;;;;;3.50;1.60;;;8.60;99.90;;;;;;5095399;28;20535;-70
2022/02/04 02:13:21;;;;;;;2.13;1.23;;;8.80;99.90;;;;;;5094824;28;20214;-68
2022/02/04 02:15:57;;;;;;;2.17;1.47;;;8.70;99.90;;;;;;5095289;28;20212;-70
2022/02/04 02:43:41;;;;;;;2.83;1.50;;;8.50;99.90;;;;;;5094242;28;20203;-70
2022/02/04 02:46:24;;;;;;;2.83;1.90;;;8.40;99.90;;;;;;5094509;28;20206;-70
2022/02/04 02:49:08;;;;;;;4.07;2.57;;;8.50;99.90;;;;;;5094297;28;20637;-70
2022/02/04 02:51:47;;;;;;;3.80;2.13;;;8.50;99.90;;;;;;5094277;28;20290;-69
2022/02/04 02:54:39;;;;;;;2.93;1.80;;;8.50;99.90;;;;;;5094129;28;20198;-71
2022/02/04 02:59:58;;;;;;;2.77;1.57;;;8.60;99.90;;;;;;5090132;28;20721;-70
2022/02/04 03:02:25;;;;;;;2.40;1.80;;;8.60;99.90;;;;;;5094132;28;20677;-70
2022/02/04 03:04:52;;;;;;;3.43;1.57;;;8.60;99.90;;;;;;5094122;28;20263;-70
2022/02/04 03:07:19;;;;;;;2.80;1.80;;;8.60;99.90;;;;;;5093580;28;20727;-68
2022/02/04 03:09:47;;;;;;;3.70;1.90;;;8.50;99.90;;;;;;5093679;28;20206;-68
2022/02/04 03:12:14;;;;;;;4.27;1.70;;;8.40;99.90;;;;;;5093337;28;20535;-71
2022/02/04 03:14:41;;;;;;;3.43;1.60;;;8.40;99.90;;;;;;5093596;28;20199;-68
2022/02/04 03:17:11;;;;;;;4.27;1.50;;;8.40;99.90;;;;;;5093575;28;20705;-68
2022/02/04 03:19:39;;;;;;;2.80;1.90;;;8.30;99.90;;;;;;5093996;28;20275;-70
2022/02/04 03:22:11;;;;;;;4.53;1.50;;;8.40;99.90;;;;;;5093766;28;20248;-68
2022/02/04 03:24:39;;;;;;;2.90;1.57;;;8.40;99.90;;;;;;5093540;28;20199;-69
2022/02/04 03:27:11;;;;;;;4.43;1.50;;;8.40;99.90;;;;;;5093391;28;20309;-67
2022/02/04 03:29:55;;;;;;;4.70;2.13;;;8.50;99.90;;;;;;5093628;28;20213;-69
2022/02/04 03:32:23;;;;;;;2.77;1.60;;;8.40;99.90;;;;;;5093714;28;20718;-71
2022/02/04 03:34:50;;;;;;;3.23;1.63;;;8.40;99.90;;;;;;5093785;28;20209;-70
2022/02/04 03:37:17;;;;;;;3.87;1.80;;;8.40;99.90;;;;;;5093464;28;20700;-68
2022/02/04 03:39:43;;;;;;;2.53;1.53;;;8.40;99.90;;;;;;5093317;28;20202;-71
2022/02/04 03:42:12;;;;;;;2.20;1.30;;;8.50;99.90;;;;;;5093146;28;20221;-68
2022/02/04 03:44:38;;;;;;;2.13;1.40;;;8.50;99.90;;;;;;5093062;28;20564;-69
2022/02/04 03:47:05;;;;;;;2.00;1.20;;;8.60;99.90;;;;;;5092462;28;20233;-68
2022/02/04 03:49:32;;;;;;;3.07;1.17;;;8.60;99.90;;;;;;5093487;28;20206;-66
2022/02/04 03:51:59;;;;;;;2.10;1.00;;;8.60;99.90;;;;;;5093670;28;20203;-66
2022/02/04 03:54:26;;;;;;;2.50;1.20;;;8.50;99.90;;;;;;5093347;28;20216;-67
2022/02/04 03:56:53;;;;;;;2.87;1.30;;;8.60;99.90;;;;;;5093533;28;20203;-67
2022/02/04 03:59:25;;;;;;;2.57;1.57;;;8.50;99.90;;;;;;5093515;28;20225;-67
2022/02/04 04:01:51;;;;;;;2.13;1.40;;;8.50;99.90;;;;;;5093255;28;20234;-66
2022/02/04 04:04:18;;;;;;;4.40;1.60;;;8.50;99.90;;;;;;5092791;28;20208;-66
2022/02/04 04:06:47;;;;;;;4.37;1.57;;;8.50;99.90;;;;;;5093003;28;20205;-67
2022/02/04 04:09:14;;;;;;;2.20;1.60;;;8.60;99.90;;;;;;5093747;28;20293;-67
2022/02/04 04:11:45;;;;;;;2.37;1.50;;;8.50;99.90;;;;;;5093100;28;20736;-67
2022/02/04 04:14:13;;;;;;;3.37;1.90;;;8.50;99.90;;;;;;5093206;28;20202;-69
2022/02/04 04:16:42;;;;;;;2.60;1.40;;;8.50;99.90;;;;;;5092772;28;20210;-67
2022/02/04 04:19:08;;;;;;;3.53;1.90;;;8.50;99.90;;;;;;5093006;28;20210;-67
2022/02/04 04:21:35;;;;;;;3.40;1.70;;;8.50;99.90;;;;;;5092687;28;20240;-67
2022/02/04 04:24:02;;;;;;;2.70;1.67;;;8.50;99.90;;;;;;5092550;28;20569;-67
2022/02/04 04:26:29;;;;;;;3.10;1.30;;;8.50;99.90;;;;;;5092936;28;20553;-68
2022/02/04 04:28:56;;;;;;;2.17;1.37;;;8.50;99.90;;;;;;5092836;28;20233;-67
2022/02/04 04:31:23;;;;;;;4.20;1.53;;;8.50;99.90;;;;;;5092687;28;20202;-67
2022/02/04 04:33:51;;;;;;;3.23;1.93;;;8.50;99.90;;;;;;5092587;28;20217;-67
2022/02/04 04:36:19;;;;;;;2.43;1.20;;;8.50;99.90;;;;;;5092610;28;20213;-68
2022/02/04 04:38:52;;;;;;;3.63;1.70;;;8.50;99.90;;;;;;5092614;28;20233;-67
2022/02/04 04:41:28;;;;;;;2.40;1.37;;;8.50;99.90;;;;;;5092876;28;20299;-70
2022/02/04 04:44:22;;;;;;;4.60;1.70;;;8.40;99.90;;;;;;5092791;28;20247;-67
2022/02/04 05:26:02;;;;;;;4.20;1.93;;;8.60;99.90;;;;;;5114339;28;20314;-67
2022/02/04 05:28:37;;;;;;;1.67;1.40;;;8.60;99.90;;;;;;5095678;28;20225;-69
2022/02/04 05:31:04;;;;;;;3.07;1.80;;;8.50;99.90;;;;;;5101850;28;20205;-69
2022/02/04 05:33:31;;;;;;;2.97;1.67;;;8.50;99.90;;;;;;5115648;28;20202;-70
2022/02/04 05:35:59;;;;;;;2.53;1.60;;;8.60;99.90;;;;;;5114948;28;20657;-69
2022/02/04 05:38:30;;;;;;;3.83;1.70;;;8.60;99.90;;;;;;5115645;28;20229;-69
2022/02/04 05:40:57;;;;;;;2.23;1.70;;;8.50;99.90;;;;;;5115727;28;20240;-66
2022/02/04 05:43:27;;;;;;;2.13;1.50;;;8.40;99.90;;;;;;5116010;28;20572;-72
2022/02/04 05:46:00;;;;;;;2.80;1.57;;;8.40;99.90;;;;;;5108051;28;20320;-69
2022/02/04 05:48:28;;;;;;;3.13;1.90;;;8.40;99.90;;;;;;5095870;28;20254;-70
2022/02/04 05:51:08;;;;;;;1.83;1.37;;;8.30;99.90;;;;;;5095298;28;20203;-72
2022/02/04 05:53:44;;;;;;;2.87;1.77;;;8.30;99.90;;;;;;5095477;28;20203;-72
2022/02/04 05:56:21;;;;;;;4.17;1.70;;;8.20;99.90;;;;;;5095425;28;20209;-71
2022/02/04 05:58:58;;;;;;;3.03;1.83;;;8.20;99.90;;;;;;5095440;28;20313;-71
2022/02/04 06:01:40;;;;;;;4.97;1.70;;;8.20;99.90;;;;;;5095094;28;20321;-69
2022/02/04 06:04:20;;;;;;;3.07;1.80;;;8.20;99.90;;;;;;5095293;28;20565;-70
2022/02/04 06:10:08;;;;;;;3.17;1.83;;;8.20;99.90;;;;;;5095435;28;20295;-68
2022/02/04 06:13:14;;;;;;;6.53;2.63;;;8.20;99.90;;;;;;5095331;28;20209;-71
2022/02/04 06:23:50;;;;;;;5.17;2.27;;;8.10;99.90;;;;;;5095159;28;20218;-70
2022/02/04 06:26:18;;;;;;;3.23;2.20;;;8.10;99.90;;;;;;5094976;28;20198;-68
2022/02/04 06:28:45;;;;;;;4.40;2.50;;;8.20;99.90;;;;;;5094851;28;20223;-68
2022/02/04 06:31:12;;;;;;;4.20;2.17;;;8.20;99.90;;;;;;5094745;28;20202;-71
2022/02/04 06:33:39;;;;;;;5.40;2.20;;;8.20;99.90;;;;;;5094315;28;20564;-70
2022/02/04 06:36:07;;;;;;;6.27;2.43;;;8.20;99.90;;;;;;5094651;28;20687;-68
2022/02/04 06:38:34;;;;;;;3.20;1.63;;;8.20;99.90;;;;;;5094546;28;20233;-68
2022/02/04 06:41:02;;;;;;;3.90;1.93;;;8.10;99.90;;;;;;5094581;28;20234;-69
2022/02/04 06:43:31;;;;;;;3.30;1.90;;;8.10;99.90;;;;;;5094763;28;20267;-68
2022/02/04 06:45:58;;;;;;;2.73;2.03;;;8.00;99.90;;;;;;5094792;28;20211;-71
2022/02/04 06:48:25;;;;;;;3.20;2.27;;;8.00;99.90;;;;;;5094457;28;20226;-68
2022/02/04 06:50:52;;;;;;;4.17;2.33;;;8.00;99.90;;;;;;5094124;28;20685;-68
2022/02/04 06:53:19;;;;;;;4.17;2.50;;;8.00;99.90;;;;;;5094420;28;20206;-68
2022/02/04 06:55:45;;;;;;;4.07;2.27;;;7.90;99.90;;;;;;5094244;28;20542;-68
2022/02/04 06:58:13;;;;;;;2.63;2.07;;;7.90;99.90;;;;;;5094510;28;20226;-69
2022/02/04 07:00:42;;;;;;;3.13;2.20;;;7.90;99.90;;;;;;5094125;28;20222;-68
2022/02/04 07:03:09;;;;;;;3.70;2.20;;;7.90;99.90;;;;;;5094107;28;20221;-70
2022/02/04 07:05:41;;;;;;;3.97;2.47;;;7.90;99.90;;;;;;5094301;28;20202;-68
2022/02/04 07:08:15;;;;;;;3.87;2.17;;;7.80;99.90;;;;;;5093801;28;20710;-68
2022/02/04 07:10:59;;;;;;;3.10;2.13;;;7.90;99.90;;;;;;5094333;28;20208;-67
2022/02/04 07:13:31;;;;;;;2.83;1.90;;;7.90;99.90;;;;;;5094229;28;20619;-70
2022/02/04 07:16:20;;;;;;;3.60;2.03;;;7.90;99.90;;;;;;5093944;28;20202;-68
2022/02/04 07:21:30;;;;;;;4.53;3.00;;;7.90;99.90;;;;;;5097964;28;20306;-70
2022/02/04 07:23:57;;;;;;;3.20;1.90;;;7.90;99.90;;;;;;5093307;28;20224;-71
2022/02/04 07:26:23;;;;;;;4.00;2.10;;;7.90;99.90;;;;;;5092224;28;20199;-68
2022/02/04 07:28:52;;;;;;;2.53;1.60;;;7.90;99.90;;;;;;5093718;28;20223;-71
2022/02/04 07:31:20;;;;;;;2.73;1.93;;;7.90;99.90;;;;;;5093600;28;20202;-71
2022/02/04 07:33:52;;;;;;;2.20;1.60;;;7.90;99.90;;;;;;5093936;28;20301;-71
2022/02/04 07:41:50;;;;;;;3.43;1.60;;;8.00;99.90;;;;;;5093433;28;20241;-69
2022/02/04 07:44:18;;;;;;;2.80;2.13;;;8.00;99.90;;;;;;5093545;28;20234;-70
2022/02/04 07:46:46;;;;;;;2.40;1.60;;;8.00;99.90;;;;;;5093080;28;20680;-71
2022/02/04 07:49:13;;;;;;;3.07;1.80;;;8.10;99.90;;;;;;5093568;28;20198;-71
2022/02/04 07:51:40;;;;;;;2.37;1.13;;;8.10;99.90;;;;;;5093616;28;20203;-67
2022/02/04 07:54:07;;;;;;;2.73;1.50;;;8.10;99.90;;;;;;5093449;28;20206;-68
2022/02/04 07:56:34;;;;;;;2.13;1.53;;;8.10;99.90;;;;;;5093652;28;20202;-71
2022/02/04 07:59:07;;;;;;;2.60;1.53;;;8.10;99.90;;;;;;5093427;28;20223;-71
2022/02/04 08:01:34;;;;;;;2.63;1.63;;;8.20;99.90;;;;;;5093429;28;20226;-68
2022/02/04 08:04:10;;;;;;;2.40;1.50;;;8.20;99.90;;;;;;5093299;28;20228;-67
2022/02/04 08:06:41;;;;;;;2.30;1.77;;;8.20;99.90;;;;;;5093158;28;20660;-68
2022/02/04 08:09:16;;;;;;;2.90;1.87;;;8.30;99.90;;;;;;5093048;28;20226;-68
2022/02/04 08:12:07;;;;;;;4.53;1.90;;;8.30;99.90;;;;;;5093312;28;20240;-70
2022/02/04 08:14:52;;;;;;;3.40;2.17;;;8.40;99.90;;;;;;5093202;28;20733;-67
2022/02/04 08:20:23;;;;;;;2.90;1.60;;;8.40;99.90;;;;;;5071646;28;20198;-71
2022/02/04 08:28:49;;;;;;;2.83;1.77;;;8.50;99.90;;;;;;5092886;28;20740;-71
2022/02/04 08:31:33;;;;;;;3.70;1.83;;;8.50;99.90;;;;;;5093173;28;20203;-70
2022/02/04 08:34:19;;;;;;;2.73;1.80;;;8.60;99.90;;;;;;5095320;28;20208;-68
2022/02/04 08:37:33;;;;;;;4.43;1.67;;;8.40;99.90;;;;;;5096973;28;20676;-69
2022/02/04 08:56:35;;;;;;;3.23;1.80;;;8.20;99.90;;;;;;5115890;28;20710;-70
2022/02/04 08:59:09;;;;;;;4.00;2.13;;;8.30;99.90;;;;;;5115266;28;20678;-68
2022/02/04 09:01:41;;;;;;;4.27;1.90;;;8.50;99.90;;;;;;5096663;28;20333;-68
2022/02/04 09:04:13;;;;;;;4.10;2.30;;;8.50;99.90;;;;;;5095124;28;20738;-67
2022/02/04 09:06:43;;;;;;;3.43;2.00;;;8.50;99.90;;;;;;5095207;28;20698;-67
2022/02/04 09:09:16;;;;;;;3.40;2.40;;;8.60;99.90;;;;;;5094845;28;20716;-67
2022/02/04 09:11:47;;;;;;;6.10;2.53;;;8.60;99.90;;;;;;5094444;28;20241;-68
2022/02/04 09:17:10;;;;;;;3.77;2.00;;;8.80;99.90;;;;;;5094851;28;20212;-68
2022/02/04 09:19:49;;;;;;;2.67;1.80;;;8.80;99.90;;;;;;5093973;28;20495;-68
2022/02/04 09:22:27;;;;;;;3.67;2.20;;;9.00;99.90;;;;;;5095894;28;20291;-71
2022/02/04 09:24:56;;;;;;;4.07;2.17;;;9.00;99.90;;;;;;5096171;28;20218;-71
2022/02/04 09:27:23;;;;;;;2.33;1.70;;;9.10;99.90;;;;;;5096244;28;20218;-73
2022/02/04 09:29:49;;;;;;;3.10;2.08;;;9.10;99.90;;;;;;5094639;28;20435;-71
2022/02/04 09:32:17;;;;;;;5.47;2.00;;;9.10;99.90;;;;;;5096083;28;20206;-71
2022/02/04 09:34:43;;;;;;;2.87;1.70;;;9.00;99.90;;;;;;5096191;28;20203;-72
2022/02/04 09:37:10;;;;;;;2.63;2.03;;;9.00;99.90;;;;;;5097888;28;20214;-71
2022/02/04 09:39:37;;;;;;;2.83;1.63;;;9.00;99.90;;;;;;5096635;28;20203;-69
2022/02/04 09:42:06;;;;;;;2.33;1.53;;;9.00;99.90;;;;;;5095616;28;20222;-71
2022/02/04 09:44:33;;;;;;;3.50;1.60;;;9.00;99.90;;;;;;5114930;28;20194;-70
2022/02/04 09:47:00;;;;;;;1.73;1.50;;;9.20;99.90;;;;;;5102638;28;20572;-70
2022/02/04 09:49:30;;;;;;;2.93;1.63;;;9.30;99.90;;;;;;5094549;28;20301;-70
2022/02/04 10:09:32;;;;;;;2.20;1.20;;;9.40;99.90;;;;;;5093221;28;20218;-69
2022/02/04 10:12:30;;;;;;;1.47;0.90;;;9.40;99.90;;;;;;5093866;28;20207;-74
2022/02/04 10:15:16;;;;;;;4.97;1.87;;;9.50;99.90;;;;;;5093580;28;20661;-69
2022/02/04 10:17:58;;;;;;;5.13;1.90;;;9.50;99.90;;;;;;5098119;28;20290;-70
2022/02/04 10:20:26;;;;;;;2.70;1.50;;;9.80;99.90;;;;;;5093824;28;20224;-70
2022/02/04 10:22:52;;;;;;;3.37;1.80;;;9.80;99.90;;;;;;5093239;28;20234;-73
2022/02/04 10:25:20;;;;;;;2.43;1.50;;;9.60;99.90;;;;;;5093733;28;20289;-72
2022/02/04 10:27:47;;;;;;;2.50;1.67;;;9.40;99.90;;;;;;5093463;28;20219;-68
2022/02/04 10:30:17;;;;;;;2.43;1.57;;;9.30;99.90;;;;;;5094428;28;20202;-68
2022/02/04 10:32:46;;;;;;;2.70;1.80;;;9.30;99.90;;;;;;5110154;28;20197;-69
2022/02/04 10:35:19;;;;;;;2.70;1.67;;;9.30;99.90;;;;;;5104396;28;20210;-68
2022/02/04 10:37:58;;;;;;;3.10;1.70;;;9.20;99.90;;;;;;5094144;28;20229;-69
2022/02/04 10:40:39;;;;;;;2.10;1.47;;;9.30;99.90;;;;;;5094200;28;20717;-72
2022/02/04 10:46:00;;;;;;;3.13;2.00;;;9.80;99.90;;;;;;5082925;28;20195;-68
2022/02/04 10:57:25;;;;;;;3.90;2.00;;;10.00;99.90;;;;;;5101941;27;20557;-70
2022/02/04 11:00:08;;;;;;;3.90;1.90;;;9.90;99.90;;;;;;5090077;28;20206;-70
2022/02/04 11:02:51;;;;;;;2.93;2.03;;;9.80;99.90;;;;;;5090075;28;20202;-67
2022/02/04 11:05:25;;;;;;;3.63;1.27;;;9.90;99.90;;;;;;5090384;28;20207;-70
2022/02/04 11:49:09;;;;;;;3.73;1.97;;;9.30;99.90;;;;;;5069243;28;20234;-71
2022/02/04 11:51:41;;;;;;;3.97;2.30;;;9.30;99.90;;;;;;5068840;28;20208;-72
2022/02/04 11:54:43;;;;;;;4.03;2.07;;;9.30;99.90;;;;;;5068712;28;20234;-68
2022/02/04 11:57:20;;;;;;;3.57;1.80;;;9.30;99.90;;;;;;5077991;28;20279;-69
2022/02/04 11:59:56;;;;;;;2.87;1.63;;;9.40;99.90;;;;;;5088639;28;20248;-76
2022/02/04 12:02:38;;;;;;;5.07;2.63;;;9.40;99.90;;;;;;5088351;28;20203;-71
2022/02/04 12:05:31;;;;;;;4.83;2.03;;;9.50;99.90;;;;;;5088392;28;20215;-73
2022/02/04 12:08:27;;;;;;;5.27;2.00;;;9.60;99.90;;;;;;5077215;28;20223;-73
2022/02/04 12:10:57;;;;;;;3.77;1.90;;;9.70;99.90;;;;;;5075214;28;20199;-70
2022/02/04 12:13:25;;;;;;;3.10;1.93;;;9.70;99.90;;;;;;5068449;28;20196;-72
2022/02/04 12:15:58;;;;;;;4.00;1.87;;;9.70;99.90;;;;;;5068122;28;20255;-72
2022/02/04 12:19:04;;;;;;;4.27;1.90;;;9.70;99.90;;;;;;5060796;28;20578;-70
2022/02/04 12:21:48;;;;;;;3.87;1.60;;;9.70;99.90;;;;;;5074162;28;20677;-71
2022/02/04 12:24:34;;;;;;;2.70;1.83;;;9.70;99.90;;;;;;5074593;28;20252;-72
2022/02/04 12:27:29;;;;;;;3.57;1.77;;;9.70;99.90;;;;;;5065750;28;20558;-69
2022/02/04 12:29:57;;;;;;;3.50;1.90;;;9.70;99.90;;;;;;5054597;28;20196;-69
2022/02/04 12:32:24;;;;;;;1.83;1.07;;;9.60;99.90;;;;;;5068722;28;20333;-68
2022/02/04 12:34:54;;;;;;;3.93;1.50;;;9.70;99.90;;;;;;5065813;28;20199;-68
2022/02/04 12:37:21;;;;;;;3.07;1.77;;;9.90;99.90;;;;;;5069215;28;20227;-69
2022/02/04 12:39:48;;;;;;;6.83;1.90;;;9.90;99.90;;;;;;5074207;28;20199;-69
2022/02/04 12:42:19;;;;;;;2.43;1.43;;;9.90;99.90;;;;;;5074606;28;20260;-71
2022/02/04 12:44:46;;;;;;;2.17;1.30;;;9.80;99.90;;;;;;5074732;28;20231;-70
2022/02/04 12:47:16;;;;;;;2.63;1.47;;;9.80;99.90;;;;;;5071781;28;20231;-70
2022/02/04 12:49:48;;;;;;;3.00;1.37;;;9.70;99.90;;;;;;5073607;28;20252;-69
2022/02/04 12:52:22;;;;;;;2.43;1.30;;;9.80;99.90;;;;;;5069128;28;20193;-70
2022/02/04 12:54:53;;;;;;;2.43;1.43;;;9.90;99.90;;;;;;5069333;28;20199;-70
2022/02/04 12:57:32;;;;;;;5.37;1.33;;;9.90;99.90;;;;;;5071782;28;20440;-70
2022/02/04 13:00:05;;;;;;;1.83;1.20;;;10.10;99.90;;;;;;5073513;28;20203;-71
2022/02/04 13:03:02;;;;;;;2.47;1.20;;;10.00;99.90;;;;;;5074101;28;20210;-70
2022/02/04 13:08:21;;;;;;;3.07;1.13;;;9.90;99.90;;;;;;5073975;28;20234;-70
2022/02/04 13:10:58;;;;;;;3.27;0.90;;;10.00;99.90;;;;;;5073984;28;20633;-70
2022/02/04 13:13:25;;;;;;;3.47;1.40;;;10.00;99.90;;;;;;5073985;28;20547;-70
2022/02/04 13:15:54;;;;;;;2.63;1.47;;;10.00;99.90;;;;;;5073945;28;20227;-70
2022/02/04 13:18:23;;;;;;;5.13;1.10;;;10.10;99.90;;;;;;5072574;28;20227;-70
2022/02/04 13:20:51;;;;;;;1.57;0.80;;;10.10;99.90;;;;;;5073519;28;20217;-70
2022/02/04 13:23:22;;;;;;;2.87;1.20;;;10.00;99.90;;;;;;5072428;28;20570;-70
2022/02/04 13:25:51;;;;;;;4.10;1.30;;;9.90;99.90;;;;;;5068847;28;20218;-70
2022/02/04 13:28:19;;;;;;;3.43;1.03;;;9.70;99.90;;;;;;5066471;28;20230;-69
2022/02/04 13:31:00;;;;;;;1.50;0.90;;;9.60;99.90;;;;;;5071357;28;20200;-71
2022/02/04 13:33:28;;;;;;;2.87;0.93;;;9.50;99.90;;;;;;5060539;28;20240;-70
2022/02/04 13:36:01;;;;;;;1.10;0.70;;;9.40;99.90;;;;;;5062941;28;20215;-72
2022/02/04 13:38:38;;;;;;;3.77;1.10;;;9.30;99.90;;;;;;5052790;28;20224;-70
2022/02/04 13:41:15;;;;;;;3.27;0.93;;;9.20;99.90;;;;;;5060925;28;20286;-73
2022/02/04 13:43:59;;;;;;;1.43;0.83;;;9.20;99.90;;;;;;5072954;28;20282;-72
2022/02/04 13:46:38;;;;;;;3.47;1.10;;;9.10;99.90;;;;;;5072229;28;20203;-73
2022/02/04 13:49:25;;;;;;;3.23;1.10;;;9.10;99.90;;;;;;5064900;28;20270;-71
2022/02/04 13:51:59;;;;;;;1.07;0.73;;;9.20;99.90;;;;;;5050521;28;20661;-68
2022/02/04 13:57:24;;;;;;;0.77;0.60;;;9.00;99.90;;;;;;5053236;28;20250;-67
2022/02/04 14:00:05;;;;;;;1.63;0.70;;;9.00;99.90;;;;;;5069935;28;20211;-67
2022/02/04 14:02:39;;;;;;;1.37;0.70;;;8.90;99.90;;;;;;5058441;28;20215;-68
2022/02/04 14:05:08;;;;;;;0.97;0.53;;;8.80;99.90;;;;;;5050702;28;20744;-73
2022/02/04 14:07:38;;;;;;;1.80;0.60;;;8.70;99.90;;;;;;5064696;28;20258;-71
2022/02/04 14:10:24;;;;;;;0.73;0.40;;;8.70;99.90;;;;;;5071502;28;20566;-71
2022/02/04 14:13:06;;;;;;;2.17;0.50;;;8.60;99.90;;;;;;5065201;28;20199;-70
2022/02/04 14:15:34;;;;;;;4.10;0.63;;;8.50;99.90;;;;;;5068376;28;20200;-68
2022/02/04 14:18:25;;;;;;;0.90;0.30;;;8.50;99.90;;;;;;5070429;28;20233;-71
2022/02/04 14:20:52;;;;;;;4.73;0.60;;;8.50;99.90;;;;;;5059861;28;20229;-70
2022/02/04 14:23:19;;;;;;;0.93;0.30;;;8.40;99.90;;;;;;5054548;28;20540;-72
2022/02/04 14:25:54;;;;;;;1.43;0.37;;;8.30;99.90;;;;;;5062412;28;20199;-71
2022/02/04 14:28:22;;;;;;;0.73;0.40;;;8.30;99.90;;;;;;5068224;28;20229;-70
2022/02/04 14:30:58;;;;;;;0.93;0.37;;;8.20;99.90;;;;;;5057520;28;20204;-68
2022/02/04 14:34:09;;;;;;;0.70;0.50;;;8.30;99.90;;;;;;5070202;28;20227;-69
2022/02/04 14:36:25;;;;;;;1.63;0.57;;;8.20;99.90;;;;;;5069889;28;20254;-69
2022/02/04 14:50:13;;;;;;;0.40;0.30;;;7.90;99.90;;;;;;5050427;28;20243;-68
2022/02/04 14:52:56;;;;;;;0.50;0.33;;;7.70;99.90;;;;;;5050802;28;20660;-66
2022/02/04 15:00:57;;;;;;;1.07;0.50;;;6.90;99.90;;;;;;5070724;28;20570;-65
2022/02/04 15:03:30;;;;;;;1.17;0.57;;;6.70;99.90;;;;;;5070494;28;20234;-68
2022/02/04 15:06:05;;;;;;;0.40;0.40;;;6.50;99.90;;;;;;5070442;28;20254;-68
2022/02/04 15:08:36;;;;;;;2.60;1.23;;;6.20;99.90;;;;;;5061132;28;20728;-65
2022/02/04 15:11:14;;;;;;;2.73;0.90;;;6.10;99.90;;;;;;5070538;28;20512;-67
2022/02/04 15:13:42;;;;;;;2.63;0.70;;;5.90;99.90;;;;;;5069483;28;20298;-66
2022/02/04 15:16:10;;;;;;;2.30;0.60;;;6.00;99.90;;;;;;5070576;28;20335;-71
2022/02/04 15:18:37;;;;;;;2.73;0.80;;;6.00;99.90;;;;;;5067059;28;20716;-74
2022/02/04 15:21:11;;;;;;;2.70;0.90;;;6.00;99.90;;;;;;5070419;28;20207;-70
2022/02/04 15:23:38;;;;;;;0.97;0.70;;;6.10;99.90;;;;;;5070422;28;20222;-67
2022/02/04 15:26:07;;;;;;;0.70;0.50;;;6.00;99.90;;;;;;5066230;28;20211;-68
2022/02/04 15:28:45;;;;;;;0.97;0.60;;;6.00;99.90;;;;;;5068748;28;20248;-69
2022/02/04 15:31:23;;;;;;;0.80;0.50;;;6.00;99.90;;;;;;5068012;28;20203;-68
2022/02/04 15:33:51;;;;;;;0.80;0.50;;;6.00;99.90;;;;;;5070270;28;20666;-69
2022/02/04 15:36:25;;;;;;;0.83;0.73;;;6.00;99.90;;;;;;5069431;28;20231;-67
2022/02/04 15:38:52;;;;;;;1.50;0.30;;;6.00;99.90;;;;;;5070844;28;20231;-69
2022/02/04 15:41:21;;;;;;;1.27;0.47;;;5.90;99.90;;;;;;5070849;28;20203;-71
2022/02/04 15:43:52;;;;;;;5.13;0.60;;;6.00;99.90;;;;;;5073726;28;20208;-70
2022/02/04 15:49:23;;;;;;;0.60;0.30;;;6.00;99.90;;;;;;5073109;28;20223;-69
2022/02/04 15:54:45;;;;;;;0.87;0.43;;;6.10;99.90;;;;;;5057514;28;20207;-66
2022/02/04 15:57:39;;;;;;;0.63;0.50;;;6.00;99.90;;;;;;5072775;28;20243;-67
2022/02/04 16:00:35;;;;;;;3.37;0.40;;;5.90;99.90;;;;;;5054197;28;20211;-69
2022/02/04 16:03:30;;;;;;;2.27;0.60;;;5.80;99.90;;;;;;5053857;28;20200;-67
2022/02/04 16:05:57;;;;;;;0.50;0.40;;;5.80;99.90;;;;;;5054132;28;20295;-71
2022/02/04 16:08:24;;;;;;;0.63;0.53;;;5.80;99.90;;;;;;5073956;28;20249;-74
2022/02/04 16:10:54;;;;;;;2.17;1.07;;;5.80;99.90;;;;;;5074389;28;20294;-70
2022/02/04 16:13:35;;;;;;;2.60;0.60;;;5.80;99.90;;;;;;5074821;28;20249;-75
2022/02/04 16:16:08;;;;;;;1.47;0.70;;;5.80;99.90;;;;;;5073560;28;20314;-75
2022/02/04 16:18:43;;;;;;;1.40;0.50;;;5.80;99.90;;;;;;5072167;28;20235;-74
2022/02/04 16:21:16;;;;;;;0.60;0.60;;;5.80;99.90;;;;;;5073581;28;20211;-74
2022/02/04 16:24:14;;;;;;;1.87;0.60;;;5.80;99.90;;;;;;5062566;28;20195;-70
2022/02/04 16:26:55;;;;;;;1.73;0.70;;;5.80;99.90;;;;;;5057245;28;20658;-71
2022/02/04 16:29:21;;;;;;;2.63;0.93;;;5.80;99.90;;;;;;5056643;28;20207;-69
2022/02/04 16:31:48;;;;;;;5.40;0.70;;;5.80;99.90;;;;;;5053208;28;20204;-74
2022/02/04 16:34:17;;;;;;;2.57;0.70;;;5.80;99.90;;;;;;5069322;28;20252;-75
2022/02/04 16:36:46;;;;;;;2.60;0.63;;;5.80;99.90;;;;;;5073566;28;20223;-73
2022/02/04 16:39:14;;;;;;;7.13;0.80;;;5.70;99.90;;;;;;5073465;28;20211;-71
2022/02/04 16:42:01;;;;;;;1.07;0.53;;;5.70;99.90;;;;;;5064091;28;20195;-69
2022/02/04 16:44:30;;;;;;;4.67;0.80;;;5.70;99.90;;;;;;5073914;28;20207;-70
2022/02/04 16:46:57;;;;;;;2.73;0.63;;;5.70;99.90;;;;;;5073393;28;20214;-69
2022/02/04 16:49:25;;;;;;;3.60;0.83;;;5.80;99.90;;;;;;5072160;28;20203;-70
2022/02/04 16:51:52;;;;;;;2.43;0.90;;;5.70;99.90;;;;;;5073279;28;20208;-71
2022/02/04 16:54:19;;;;;;;1.43;0.60;;;5.70;99.90;;;;;;5073645;28;20218;-70
2022/02/04 16:56:47;;;;;;;2.97;0.60;;;5.60;99.90;;;;;;5072785;28;20233;-75
2022/02/04 16:59:13;;;;;;;2.00;0.73;;;5.60;99.90;;;;;;5073298;28;20412;-74
2022/02/04 17:01:40;;;;;;;4.73;0.60;;;5.60;99.90;;;;;;5073359;28;20208;-68
2022/02/04 17:04:07;;;;;;;3.03;0.80;;;5.60;99.90;;;;;;5072368;28;20210;-69
2022/02/04 17:06:39;;;;;;;7.23;1.27;;;5.70;99.90;;;;;;5071908;28;20577;-75
2022/02/04 17:09:21;;;;;;;1.33;0.70;;;5.60;99.90;;;;;;5071669;28;20227;-78
2022/02/04 17:11:51;;;;;;;2.77;0.80;;;5.50;99.90;;;;;;5071312;28;20200;-70
2022/02/04 17:14:18;;;;;;;4.40;1.00;;;5.50;99.90;;;;;;5071879;28;20257;-70
2022/02/04 17:16:45;;;;;;;1.90;0.90;;;5.50;99.90;;;;;;5071228;28;20231;-71
2022/02/04 17:19:17;;;;;;;2.47;0.90;;;5.40;99.90;;;;;;5067487;28;20211;-72
2022/02/04 17:21:45;;;;;;;2.17;0.87;;;5.40;99.90;;;;;;5072081;28;20199;-73
2022/02/04 17:24:14;;;;;;;4.13;0.90;;;5.30;99.90;;;;;;5072888;28;20207;-71
2022/02/04 17:26:41;;;;;;;2.63;0.63;;;5.40;99.90;;;;;;5072074;28;20208;-71
2022/02/04 17:29:08;;;;;;;1.30;0.70;;;5.40;99.90;;;;;;5073088;28;20590;-71
2022/02/04 17:31:35;;;;;;;2.90;0.97;;;5.50;99.90;;;;;;5073148;28;20253;-70
2022/02/04 17:34:02;;;;;;;8.90;1.17;;;5.50;99.90;;;;;;5064774;28;20204;-70
2022/02/04 17:36:32;;;;;;;6.27;1.40;;;5.50;99.90;;;;;;5052662;28;20220;-71
2022/02/04 17:39:01;;;;;;;5.80;0.90;;;5.60;99.90;;;;;;5048812;28;20231;-69
2022/02/04 17:41:28;;;;;;;4.33;0.90;;;5.70;99.90;;;;;;5062827;28;20202;-73
2022/02/04 17:43:55;;;;;;;7.97;1.00;;;5.70;99.90;;;;;;5072450;28;20207;-70
2022/02/04 17:46:25;;;;;;;3.73;1.23;;;5.60;99.90;;;;;;5071839;28;20638;-71
2022/02/04 17:48:57;;;;;;;2.50;0.97;;;5.80;99.90;;;;;;5072077;28;20632;-69